sensor_id;sensor_type;location;lat;lon;timestamp;P1;durP1;ratioP1;P2;durP2;ratioP2
46845;SDS011;33947;46.804;134.252;2024-02-23T00:00:17;24.17;;;11.30;;
46845;SDS011;33947;46.804;134.252;2024-02-23T00:03:24;28.17;;;13.07;;
46845;SDS011;33947;46.804;134.252;2024-02-23T00:06:32;24.50;;;11.02;;
46845;SDS011;33947;46.804;134.252;2024-02-23T00:09:38;21.58;;;9.38;;
46845;SDS011;33947;46.804;134.252;2024-02-23T00:12:48;17.17;;;6.80;;
46845;SDS011;33947;46.804;134.252;2024-02-23T00:15:55;17.80;;;6.50;;
46845;SDS011;33947;46.804;134.252;2024-02-23T00:19:03;37.10;;;12.77;;
46845;SDS011;33947;46.804;134.252;2024-02-23T00:22:10;31.73;;;10.15;;
46845;SDS011;33947;46.804;134.252;2024-02-23T00:25:17;42.58;;;14.20;;
46845;SDS011;33947;46.804;134.252;2024-02-23T00:28:26;133.27;;;35.58;;
46845;SDS011;33947;46.804;134.252;2024-02-23T00:31:33;34.97;;;11.45;;
46845;SDS011;33947;46.804;134.252;2024-02-23T00:34:40;14.20;;;5.68;;
46845;SDS011;33947;46.804;134.252;2024-02-23T00:37:47;42.15;;;20.27;;
46845;SDS011;33947;46.804;134.252;2024-02-23T00:40:54;3.97;;;2.15;;
46845;SDS011;33947;46.804;134.252;2024-02-23T00:44:04;4.68;;;2.60;;
46845;SDS011;33947;46.804;134.252;2024-02-23T00:47:12;7.88;;;4.28;;
46845;SDS011;33947;46.804;134.252;2024-02-23T00:50:19;7.00;;;3.58;;
46845;SDS011;33947;46.804;134.252;2024-02-23T00:53:28;13.43;;;5.28;;
46845;SDS011;33947;46.804;134.252;2024-02-23T00:56:37;26.45;;;10.75;;
46845;SDS011;33947;46.804;134.252;2024-02-23T00:59:55;11.98;;;6.18;;
46845;SDS011;33947;46.804;134.252;2024-02-23T01:03:04;38.88;;;10.20;;
46845;SDS011;33947;46.804;134.252;2024-02-23T01:06:11;10.38;;;4.80;;
46845;SDS011;33947;46.804;134.252;2024-02-23T01:09:18;17.50;;;6.32;;
46845;SDS011;33947;46.804;134.252;2024-02-23T01:12:26;27.30;;;9.93;;
46845;SDS011;33947;46.804;134.252;2024-02-23T01:15:34;11.40;;;5.25;;
46845;SDS011;33947;46.804;134.252;2024-02-23T01:18:42;13.23;;;5.80;;
46845;SDS011;33947;46.804;134.252;2024-02-23T01:21:48;13.00;;;6.47;;
46845;SDS011;33947;46.804;134.252;2024-02-23T01:25:04;19.65;;;7.43;;
46845;SDS011;33947;46.804;134.252;2024-02-23T01:28:12;9.20;;;5.35;;
46845;SDS011;33947;46.804;134.252;2024-02-23T01:31:20;19.05;;;6.25;;
46845;SDS011;33947;46.804;134.252;2024-02-23T01:34:27;7.38;;;4.18;;
46845;SDS011;33947;46.804;134.252;2024-02-23T01:37:34;9.30;;;4.80;;
46845;SDS011;33947;46.804;134.252;2024-02-23T01:40:41;7.32;;;3.90;;
46845;SDS011;33947;46.804;134.252;2024-02-23T01:43:49;10.30;;;5.40;;
46845;SDS011;33947;46.804;134.252;2024-02-23T01:46:59;11.88;;;5.40;;
46845;SDS011;33947;46.804;134.252;2024-02-23T01:50:06;8.55;;;4.28;;
46845;SDS011;33947;46.804;134.252;2024-02-23T01:53:16;23.08;;;5.55;;
46845;SDS011;33947;46.804;134.252;2024-02-23T01:56:26;4.55;;;2.80;;
46845;SDS011;33947;46.804;134.252;2024-02-23T01:59:34;28.27;;;7.25;;
46845;SDS011;33947;46.804;134.252;2024-02-23T02:02:44;6.55;;;3.20;;
46845;SDS011;33947;46.804;134.252;2024-02-23T02:05:54;12.15;;;5.05;;
46845;SDS011;33947;46.804;134.252;2024-02-23T02:09:03;5.72;;;3.10;;
46845;SDS011;33947;46.804;134.252;2024-02-23T02:12:11;4.20;;;2.67;;
46845;SDS011;33947;46.804;134.252;2024-02-23T02:15:17;6.90;;;3.40;;
46845;SDS011;33947;46.804;134.252;2024-02-23T02:18:27;6.60;;;3.45;;
46845;SDS011;33947;46.804;134.252;2024-02-23T02:21:36;8.77;;;3.60;;
46845;SDS011;33947;46.804;134.252;2024-02-23T02:24:45;6.18;;;2.60;;
46845;SDS011;33947;46.804;134.252;2024-02-23T02:27:52;4.60;;;2.67;;
46845;SDS011;33947;46.804;134.252;2024-02-23T02:30:59;5.07;;;2.70;;
46845;SDS011;33947;46.804;134.252;2024-02-23T02:34:08;5.07;;;2.95;;
46845;SDS011;33947;46.804;134.252;2024-02-23T02:37:17;3.42;;;2.35;;
46845;SDS011;33947;46.804;134.252;2024-02-23T02:40:24;4.35;;;2.40;;
46845;SDS011;33947;46.804;134.252;2024-02-23T02:43:31;6.53;;;3.33;;
46845;SDS011;33947;46.804;134.252;2024-02-23T02:46:39;6.05;;;2.80;;
46845;SDS011;33947;46.804;134.252;2024-02-23T02:49:48;5.88;;;3.15;;
46845;SDS011;33947;46.804;134.252;2024-02-23T02:52:55;5.13;;;2.40;;
46845;SDS011;33947;46.804;134.252;2024-02-23T02:56:05;5.20;;;3.03;;
46845;SDS011;33947;46.804;134.252;2024-02-23T02:59:12;4.57;;;2.65;;
46845;SDS011;33947;46.804;134.252;2024-02-23T03:02:19;5.47;;;2.45;;
46845;SDS011;33947;46.804;134.252;2024-02-23T03:05:29;4.95;;;2.40;;
46845;SDS011;33947;46.804;134.252;2024-02-23T03:08:37;3.42;;;2.20;;
46845;SDS011;33947;46.804;134.252;2024-02-23T03:11:46;5.13;;;2.60;;
46845;SDS011;33947;46.804;134.252;2024-02-23T03:14:53;4.30;;;2.28;;
46845;SDS011;33947;46.804;134.252;2024-02-23T03:18:01;6.90;;;2.22;;
46845;SDS011;33947;46.804;134.252;2024-02-23T03:21:10;6.20;;;3.88;;
46845;SDS011;33947;46.804;134.252;2024-02-23T03:24:17;5.15;;;2.47;;
46845;SDS011;33947;46.804;134.252;2024-02-23T03:30:35;5.75;;;2.70;;
46845;SDS011;33947;46.804;134.252;2024-02-23T03:33:42;4.82;;;3.17;;
46845;SDS011;33947;46.804;134.252;2024-02-23T03:36:51;8.25;;;3.35;;
46845;SDS011;33947;46.804;134.252;2024-02-23T03:39:58;5.25;;;2.72;;
46845;SDS011;33947;46.804;134.252;2024-02-23T03:43:06;3.92;;;2.38;;
46845;SDS011;33947;46.804;134.252;2024-02-23T03:46:14;4.07;;;2.65;;
46845;SDS011;33947;46.804;134.252;2024-02-23T03:49:21;8.23;;;3.42;;
46845;SDS011;33947;46.804;134.252;2024-02-23T03:52:30;7.78;;;2.60;;
46845;SDS011;33947;46.804;134.252;2024-02-23T03:55:37;4.68;;;2.50;;
46845;SDS011;33947;46.804;134.252;2024-02-23T03:58:45;4.20;;;2.58;;
46845;SDS011;33947;46.804;134.252;2024-02-23T04:01:52;3.55;;;2.20;;
46845;SDS011;33947;46.804;134.252;2024-02-23T04:04:59;9.63;;;3.83;;
46845;SDS011;33947;46.804;134.252;2024-02-23T04:08:08;7.80;;;4.00;;
46845;SDS011;33947;46.804;134.252;2024-02-23T04:11:16;4.00;;;2.15;;
46845;SDS011;33947;46.804;134.252;2024-02-23T04:14:23;4.07;;;2.15;;
46845;SDS011;33947;46.804;134.252;2024-02-23T04:17:31;4.00;;;2.42;;
46845;SDS011;33947;46.804;134.252;2024-02-23T04:20:38;7.15;;;2.25;;
46845;SDS011;33947;46.804;134.252;2024-02-23T04:23:47;6.18;;;3.00;;
46845;SDS011;33947;46.804;134.252;2024-02-23T04:26:55;9.02;;;3.20;;
46845;SDS011;33947;46.804;134.252;2024-02-23T04:30:03;6.47;;;3.65;;
46845;SDS011;33947;46.804;134.252;2024-02-23T04:33:11;5.65;;;2.33;;
46845;SDS011;33947;46.804;134.252;2024-02-23T04:36:19;3.20;;;2.25;;
46845;SDS011;33947;46.804;134.252;2024-02-23T04:39:28;3.25;;;2.17;;
46845;SDS011;33947;46.804;134.252;2024-02-23T04:42:34;3.35;;;2.10;;
46845;SDS011;33947;46.804;134.252;2024-02-23T04:45:42;8.45;;;3.72;;
46845;SDS011;33947;46.804;134.252;2024-02-23T04:48:49;6.57;;;3.33;;
46845;SDS011;33947;46.804;134.252;2024-02-23T04:51:57;4.07;;;2.88;;
46845;SDS011;33947;46.804;134.252;2024-02-23T04:55:17;5.32;;;2.65;;
46845;SDS011;33947;46.804;134.252;2024-02-23T04:58:29;2.97;;;2.17;;
46845;SDS011;33947;46.804;134.252;2024-02-23T05:01:36;3.38;;;2.00;;
46845;SDS011;33947;46.804;134.252;2024-02-23T05:04:44;3.85;;;2.42;;
46845;SDS011;33947;46.804;134.252;2024-02-23T05:07:51;2.72;;;1.83;;
46845;SDS011;33947;46.804;134.252;2024-02-23T05:11:00;6.20;;;2.50;;
46845;SDS011;33947;46.804;134.252;2024-02-23T05:14:08;3.33;;;1.98;;
46845;SDS011;33947;46.804;134.252;2024-02-23T05:17:16;6.80;;;3.25;;
46845;SDS011;33947;46.804;134.252;2024-02-23T05:20:22;4.63;;;2.47;;
46845;SDS011;33947;46.804;134.252;2024-02-23T05:23:30;5.47;;;3.00;;
46845;SDS011;33947;46.804;134.252;2024-02-23T05:26:39;4.47;;;2.38;;
46845;SDS011;33947;46.804;134.252;2024-02-23T05:29:47;6.22;;;2.75;;
46845;SDS011;33947;46.804;134.252;2024-02-23T05:32:55;3.47;;;2.03;;
46845;SDS011;33947;46.804;134.252;2024-02-23T05:36:02;4.50;;;2.60;;
46845;SDS011;33947;46.804;134.252;2024-02-23T05:39:10;3.65;;;2.40;;
46845;SDS011;33947;46.804;134.252;2024-02-23T05:42:20;5.97;;;3.10;;
46845;SDS011;33947;46.804;134.252;2024-02-23T05:45:27;4.97;;;2.40;;
46845;SDS011;33947;46.804;134.252;2024-02-23T05:48:36;4.55;;;2.15;;
46845;SDS011;33947;46.804;134.252;2024-02-23T05:51:45;4.35;;;2.58;;
46845;SDS011;33947;46.804;134.252;2024-02-23T05:54:55;6.05;;;2.55;;
46845;SDS011;33947;46.804;134.252;2024-02-23T05:58:05;5.65;;;2.63;;
46845;SDS011;33947;46.804;134.252;2024-02-23T06:01:16;15.18;;;6.43;;
46845;SDS011;33947;46.804;134.252;2024-02-23T06:04:25;3.75;;;2.58;;
46845;SDS011;33947;46.804;134.252;2024-02-23T06:07:33;10.88;;;4.53;;
46845;SDS011;33947;46.804;134.252;2024-02-23T06:10:40;30.25;;;14.85;;
46845;SDS011;33947;46.804;134.252;2024-02-23T06:13:50;5.05;;;2.55;;
46845;SDS011;33947;46.804;134.252;2024-02-23T06:16:57;7.65;;;3.42;;
46845;SDS011;33947;46.804;134.252;2024-02-23T06:20:04;55.90;;;19.65;;
46845;SDS011;33947;46.804;134.252;2024-02-23T06:23:14;17.70;;;7.65;;
46845;SDS011;33947;46.804;134.252;2024-02-23T06:26:22;9.07;;;3.90;;
46845;SDS011;33947;46.804;134.252;2024-02-23T06:29:35;4.80;;;2.63;;
46845;SDS011;33947;46.804;134.252;2024-02-23T06:32:45;23.85;;;10.50;;
46845;SDS011;33947;46.804;134.252;2024-02-23T06:35:52;10.23;;;5.05;;
46845;SDS011;33947;46.804;134.252;2024-02-23T06:38:59;11.65;;;5.45;;
46845;SDS011;33947;46.804;134.252;2024-02-23T06:42:07;10.98;;;4.68;;
46845;SDS011;33947;46.804;134.252;2024-02-23T06:45:16;11.63;;;5.25;;
46845;SDS011;33947;46.804;134.252;2024-02-23T06:48:23;8.60;;;4.28;;
46845;SDS011;33947;46.804;134.252;2024-02-23T06:51:33;13.73;;;5.65;;
46845;SDS011;33947;46.804;134.252;2024-02-23T06:54:40;15.13;;;4.05;;
46845;SDS011;33947;46.804;134.252;2024-02-23T06:57:48;12.07;;;4.85;;
46845;SDS011;33947;46.804;134.252;2024-02-23T07:00:56;7.95;;;3.55;;
46845;SDS011;33947;46.804;134.252;2024-02-23T07:04:06;9.02;;;3.65;;
46845;SDS011;33947;46.804;134.252;2024-02-23T07:07:13;157.73;;;46.65;;
46845;SDS011;33947;46.804;134.252;2024-02-23T07:10:20;130.00;;;38.28;;
46845;SDS011;33947;46.804;134.252;2024-02-23T07:13:29;244.95;;;74.30;;
46845;SDS011;33947;46.804;134.252;2024-02-23T07:16:39;196.98;;;62.22;;
46845;SDS011;33947;46.804;134.252;2024-02-23T07:19:46;136.05;;;41.90;;
46845;SDS011;33947;46.804;134.252;2024-02-23T07:22:54;40.83;;;15.57;;
46845;SDS011;33947;46.804;134.252;2024-02-23T07:26:02;12.02;;;6.57;;
46845;SDS011;33947;46.804;134.252;2024-02-23T07:29:09;8.32;;;4.13;;
46845;SDS011;33947;46.804;134.252;2024-02-23T07:32:22;17.13;;;7.93;;
46845;SDS011;33947;46.804;134.252;2024-02-23T07:35:30;14.23;;;5.88;;
46845;SDS011;33947;46.804;134.252;2024-02-23T07:38:37;45.15;;;21.17;;
46845;SDS011;33947;46.804;134.252;2024-02-23T07:41:45;13.05;;;6.63;;
46845;SDS011;33947;46.804;134.252;2024-02-23T07:44:52;15.52;;;5.85;;
46845;SDS011;33947;46.804;134.252;2024-02-23T07:48:02;12.70;;;7.28;;
46845;SDS011;33947;46.804;134.252;2024-02-23T07:51:09;11.35;;;5.93;;
46845;SDS011;33947;46.804;134.252;2024-02-23T07:54:17;8.30;;;4.90;;
46845;SDS011;33947;46.804;134.252;2024-02-23T07:57:24;6.55;;;3.70;;
46845;SDS011;33947;46.804;134.252;2024-02-23T08:00:31;71.18;;;26.70;;
46845;SDS011;33947;46.804;134.252;2024-02-23T08:03:44;40.05;;;17.48;;
46845;SDS011;33947;46.804;134.252;2024-02-23T08:06:51;24.10;;;10.93;;
46845;SDS011;33947;46.804;134.252;2024-02-23T08:09:58;21.10;;;10.45;;
46845;SDS011;33947;46.804;134.252;2024-02-23T08:13:06;12.73;;;7.97;;
46845;SDS011;33947;46.804;134.252;2024-02-23T08:16:15;19.30;;;7.05;;
46845;SDS011;33947;46.804;134.252;2024-02-23T08:19:24;10.95;;;4.55;;
46845;SDS011;33947;46.804;134.252;2024-02-23T08:22:31;19.08;;;8.30;;
46845;SDS011;33947;46.804;134.252;2024-02-23T08:25:38;14.82;;;7.32;;
46845;SDS011;33947;46.804;134.252;2024-02-23T08:28:45;16.27;;;8.98;;
46845;SDS011;33947;46.804;134.252;2024-02-23T08:31:52;10.02;;;5.13;;
46845;SDS011;33947;46.804;134.252;2024-02-23T08:35:01;8.15;;;4.82;;
46845;SDS011;33947;46.804;134.252;2024-02-23T08:38:09;4.65;;;3.47;;
46845;SDS011;33947;46.804;134.252;2024-02-23T08:41:17;10.40;;;4.05;;
46845;SDS011;33947;46.804;134.252;2024-02-23T08:44:24;9.80;;;4.32;;
46845;SDS011;33947;46.804;134.252;2024-02-23T08:47:31;6.85;;;4.10;;
46845;SDS011;33947;46.804;134.252;2024-02-23T08:50:41;10.38;;;3.50;;
46845;SDS011;33947;46.804;134.252;2024-02-23T08:53:48;3.90;;;2.78;;
46845;SDS011;33947;46.804;134.252;2024-02-23T08:56:54;4.78;;;3.10;;
46845;SDS011;33947;46.804;134.252;2024-02-23T09:00:02;8.10;;;3.67;;
46845;SDS011;33947;46.804;134.252;2024-02-23T09:03:09;4.88;;;3.53;;
46845;SDS011;33947;46.804;134.252;2024-02-23T09:06:18;10.88;;;5.78;;
46845;SDS011;33947;46.804;134.252;2024-02-23T09:09:29;79.35;;;16.90;;
46845;SDS011;33947;46.804;134.252;2024-02-23T09:12:36;36.38;;;9.65;;
46845;SDS011;33947;46.804;134.252;2024-02-23T09:15:45;125.45;;;24.25;;
46845;SDS011;33947;46.804;134.252;2024-02-23T09:18:52;59.35;;;15.27;;
46845;SDS011;33947;46.804;134.252;2024-02-23T09:22:01;21.30;;;6.45;;
46845;SDS011;33947;46.804;134.252;2024-02-23T09:25:08;204.55;;;49.33;;
46845;SDS011;33947;46.804;134.252;2024-02-23T09:28:15;314.80;;;82.78;;
46845;SDS011;33947;46.804;134.252;2024-02-23T09:31:22;182.57;;;52.92;;
46845;SDS011;33947;46.804;134.252;2024-02-23T09:34:30;150.45;;;43.75;;
46845;SDS011;33947;46.804;134.252;2024-02-23T09:37:40;127.80;;;53.03;;
46845;SDS011;33947;46.804;134.252;2024-02-23T09:40:47;231.50;;;73.57;;
46845;SDS011;33947;46.804;134.252;2024-02-23T09:43:58;76.18;;;36.22;;
46845;SDS011;33947;46.804;134.252;2024-02-23T09:47:08;220.25;;;59.90;;
46845;SDS011;33947;46.804;134.252;2024-02-23T09:50:16;175.57;;;55.22;;
46845;SDS011;33947;46.804;134.252;2024-02-23T09:53:26;134.73;;;43.70;;
46845;SDS011;33947;46.804;134.252;2024-02-23T09:56:34;155.82;;;51.58;;
46845;SDS011;33947;46.804;134.252;2024-02-23T09:59:41;239.07;;;69.65;;
46845;SDS011;33947;46.804;134.252;2024-02-23T10:02:50;199.40;;;57.00;;
46845;SDS011;33947;46.804;134.252;2024-02-23T10:05:58;137.25;;;43.83;;
46845;SDS011;33947;46.804;134.252;2024-02-23T10:09:08;229.82;;;68.60;;
46845;SDS011;33947;46.804;134.252;2024-02-23T10:12:17;225.55;;;70.93;;
46845;SDS011;33947;46.804;134.252;2024-02-23T10:15:24;267.90;;;88.50;;
46845;SDS011;33947;46.804;134.252;2024-02-23T10:18:31;214.90;;;77.72;;
46845;SDS011;33947;46.804;134.252;2024-02-23T10:21:38;251.60;;;84.82;;
46845;SDS011;33947;46.804;134.252;2024-02-23T10:24:48;363.42;;;116.25;;
46845;SDS011;33947;46.804;134.252;2024-02-23T10:27:55;379.65;;;120.82;;
46845;SDS011;33947;46.804;134.252;2024-02-23T10:31:04;470.60;;;131.02;;
46845;SDS011;33947;46.804;134.252;2024-02-23T10:34:17;339.23;;;96.43;;
46845;SDS011;33947;46.804;134.252;2024-02-23T10:37:26;212.82;;;67.03;;
46845;SDS011;33947;46.804;134.252;2024-02-23T10:40:36;517.33;;;139.95;;
46845;SDS011;33947;46.804;134.252;2024-02-23T10:43:47;304.42;;;89.82;;
46845;SDS011;33947;46.804;134.252;2024-02-23T10:46:55;338.92;;;99.10;;
46845;SDS011;33947;46.804;134.252;2024-02-23T10:50:05;247.88;;;70.00;;
46845;SDS011;33947;46.804;134.252;2024-02-23T10:53:14;190.30;;;55.65;;
46845;SDS011;33947;46.804;134.252;2024-02-23T10:56:25;100.55;;;36.47;;
46845;SDS011;33947;46.804;134.252;2024-02-23T10:59:32;98.95;;;32.20;;
46845;SDS011;33947;46.804;134.252;2024-02-23T11:02:43;97.57;;;33.63;;
46845;SDS011;33947;46.804;134.252;2024-02-23T11:05:53;140.70;;;48.67;;
46845;SDS011;33947;46.804;134.252;2024-02-23T11:09:06;124.45;;;42.90;;
46845;SDS011;33947;46.804;134.252;2024-02-23T11:12:21;133.77;;;46.20;;
46845;SDS011;33947;46.804;134.252;2024-02-23T11:15:30;139.38;;;46.05;;
46845;SDS011;33947;46.804;134.252;2024-02-23T11:18:45;135.05;;;43.35;;
46845;SDS011;33947;46.804;134.252;2024-02-23T11:21:53;159.40;;;49.80;;
46845;SDS011;33947;46.804;134.252;2024-02-23T11:25:00;224.95;;;66.82;;
46845;SDS011;33947;46.804;134.252;2024-02-23T11:28:11;200.88;;;64.18;;
46845;SDS011;33947;46.804;134.252;2024-02-23T11:31:31;190.75;;;58.25;;
46845;SDS011;33947;46.804;134.252;2024-02-23T11:34:38;178.90;;;60.85;;
46845;SDS011;33947;46.804;134.252;2024-02-23T11:37:46;107.68;;;40.63;;
46845;SDS011;33947;46.804;134.252;2024-02-23T11:40:56;141.00;;;49.97;;
46845;SDS011;33947;46.804;134.252;2024-02-23T11:44:06;147.23;;;57.97;;
46845;SDS011;33947;46.804;134.252;2024-02-23T11:47:14;121.53;;;40.38;;
46845;SDS011;33947;46.804;134.252;2024-02-23T11:50:24;121.63;;;42.55;;
46845;SDS011;33947;46.804;134.252;2024-02-23T11:53:32;113.05;;;43.08;;
46845;SDS011;33947;46.804;134.252;2024-02-23T11:56:40;91.95;;;35.35;;
46845;SDS011;33947;46.804;134.252;2024-02-23T11:59:52;80.60;;;32.17;;
46845;SDS011;33947;46.804;134.252;2024-02-23T12:02:58;90.85;;;32.30;;
46845;SDS011;33947;46.804;134.252;2024-02-23T12:06:06;75.88;;;28.80;;
46845;SDS011;33947;46.804;134.252;2024-02-23T12:09:14;48.63;;;19.63;;
46845;SDS011;33947;46.804;134.252;2024-02-23T12:12:21;30.45;;;10.88;;
46845;SDS011;33947;46.804;134.252;2024-02-23T12:15:30;36.95;;;13.45;;
46845;SDS011;33947;46.804;134.252;2024-02-23T12:18:38;11.93;;;6.93;;
46845;SDS011;33947;46.804;134.252;2024-02-23T12:21:46;23.05;;;9.52;;
46845;SDS011;33947;46.804;134.252;2024-02-23T12:24:53;22.35;;;9.57;;
46845;SDS011;33947;46.804;134.252;2024-02-23T12:28:04;23.20;;;10.20;;
46845;SDS011;33947;46.804;134.252;2024-02-23T12:31:13;19.48;;;8.48;;
46845;SDS011;33947;46.804;134.252;2024-02-23T12:34:20;129.25;;;28.17;;
46845;SDS011;33947;46.804;134.252;2024-02-23T12:37:28;111.95;;;25.80;;
46845;SDS011;33947;46.804;134.252;2024-02-23T12:40:43;96.97;;;23.60;;
46845;SDS011;33947;46.804;134.252;2024-02-23T12:43:50;35.70;;;11.57;;
46845;SDS011;33947;46.804;134.252;2024-02-23T12:46:59;52.25;;;14.85;;
46845;SDS011;33947;46.804;134.252;2024-02-23T12:50:07;53.38;;;18.58;;
46845;SDS011;33947;46.804;134.252;2024-02-23T12:53:31;51.47;;;18.70;;
46845;SDS011;33947;46.804;134.252;2024-02-23T12:56:40;95.35;;;29.67;;
46845;SDS011;33947;46.804;134.252;2024-02-23T12:59:48;227.68;;;57.60;;
46845;SDS011;33947;46.804;134.252;2024-02-23T13:02:57;104.55;;;27.95;;
46845;SDS011;33947;46.804;134.252;2024-02-23T13:06:04;99.93;;;29.20;;
46845;SDS011;33947;46.804;134.252;2024-02-23T13:09:11;89.95;;;24.50;;
46845;SDS011;33947;46.804;134.252;2024-02-23T13:12:18;348.58;;;84.57;;
46845;SDS011;33947;46.804;134.252;2024-02-23T13:15:26;531.83;;;144.80;;
46845;SDS011;33947;46.804;134.252;2024-02-23T13:18:35;393.52;;;109.22;;
46845;SDS011;33947;46.804;134.252;2024-02-23T13:21:42;142.00;;;36.03;;
46845;SDS011;33947;46.804;134.252;2024-02-23T13:24:50;301.40;;;85.50;;
46845;SDS011;33947;46.804;134.252;2024-02-23T13:27:56;221.35;;;61.55;;
46845;SDS011;33947;46.804;134.252;2024-02-23T13:31:05;124.60;;;37.83;;
46845;SDS011;33947;46.804;134.252;2024-02-23T13:34:14;71.25;;;20.00;;
46845;SDS011;33947;46.804;134.252;2024-02-23T13:37:22;109.90;;;30.35;;
46845;SDS011;33947;46.804;134.252;2024-02-23T13:40:31;77.70;;;23.63;;
46845;SDS011;33947;46.804;134.252;2024-02-23T13:43:38;180.02;;;38.63;;
46845;SDS011;33947;46.804;134.252;2024-02-23T13:46:45;182.70;;;45.80;;
46845;SDS011;33947;46.804;134.252;2024-02-23T13:49:54;230.90;;;53.28;;
46845;SDS011;33947;46.804;134.252;2024-02-23T13:53:01;200.20;;;52.22;;
46845;SDS011;33947;46.804;134.252;2024-02-23T13:56:09;225.93;;;61.67;;
46845;SDS011;33947;46.804;134.252;2024-02-23T13:59:15;314.40;;;77.15;;
46845;SDS011;33947;46.804;134.252;2024-02-23T14:02:24;255.68;;;66.43;;
46845;SDS011;33947;46.804;134.252;2024-02-23T14:05:37;249.18;;;67.82;;
46845;SDS011;33947;46.804;134.252;2024-02-23T14:08:48;161.57;;;49.88;;
46845;SDS011;33947;46.804;134.252;2024-02-23T14:11:56;267.88;;;77.10;;
46845;SDS011;33947;46.804;134.252;2024-02-23T14:15:04;328.23;;;78.85;;
46845;SDS011;33947;46.804;134.252;2024-02-23T14:18:11;391.50;;;95.95;;
46845;SDS011;33947;46.804;134.252;2024-02-23T14:21:29;345.67;;;90.70;;
46845;SDS011;33947;46.804;134.252;2024-02-23T14:24:38;210.27;;;62.85;;
46845;SDS011;33947;46.804;134.252;2024-02-23T14:27:46;181.65;;;52.28;;
46845;SDS011;33947;46.804;134.252;2024-02-23T14:31:05;111.25;;;34.05;;
46845;SDS011;33947;46.804;134.252;2024-02-23T14:34:13;122.47;;;36.90;;
46845;SDS011;33947;46.804;134.252;2024-02-23T14:37:30;108.72;;;38.80;;
46845;SDS011;33947;46.804;134.252;2024-02-23T14:40:39;81.30;;;27.42;;
46845;SDS011;33947;46.804;134.252;2024-02-23T14:43:48;106.88;;;32.15;;
46845;SDS011;33947;46.804;134.252;2024-02-23T14:46:57;155.43;;;45.60;;
46845;SDS011;33947;46.804;134.252;2024-02-23T14:50:06;128.52;;;40.90;;
46845;SDS011;33947;46.804;134.252;2024-02-23T14:53:21;96.88;;;32.40;;
46845;SDS011;33947;46.804;134.252;2024-02-23T14:56:34;71.53;;;26.33;;
46845;SDS011;33947;46.804;134.252;2024-02-23T14:59:45;134.60;;;45.75;;
46845;SDS011;33947;46.804;134.252;2024-02-23T15:02:54;133.13;;;45.55;;
46845;SDS011;33947;46.804;134.252;2024-02-23T15:06:01;132.43;;;40.65;;
46845;SDS011;33947;46.804;134.252;2024-02-23T15:09:12;185.65;;;54.42;;
46845;SDS011;33947;46.804;134.252;2024-02-23T15:12:22;138.88;;;43.30;;
46845;SDS011;33947;46.804;134.252;2024-02-23T15:15:33;149.65;;;47.15;;
46845;SDS011;33947;46.804;134.252;2024-02-23T15:18:44;85.95;;;35.38;;
46845;SDS011;33947;46.804;134.252;2024-02-23T15:21:55;263.52;;;87.63;;
46845;SDS011;33947;46.804;134.252;2024-02-23T15:25:04;246.85;;;69.25;;
46845;SDS011;33947;46.804;134.252;2024-02-23T15:28:13;163.82;;;56.13;;
46845;SDS011;33947;46.804;134.252;2024-02-23T15:31:26;164.18;;;59.70;;
46845;SDS011;33947;46.804;134.252;2024-02-23T15:34:33;195.68;;;74.78;;
46845;SDS011;33947;46.804;134.252;2024-02-23T15:37:40;99.97;;;37.63;;
46845;SDS011;33947;46.804;134.252;2024-02-23T15:40:49;67.28;;;31.30;;
46845;SDS011;33947;46.804;134.252;2024-02-23T15:43:57;70.60;;;27.70;;
46845;SDS011;33947;46.804;134.252;2024-02-23T15:47:04;480.77;;;111.40;;
46845;SDS011;33947;46.804;134.252;2024-02-23T15:50:12;148.85;;;42.05;;
46845;SDS011;33947;46.804;134.252;2024-02-23T15:53:43;75.80;;;27.77;;
46845;SDS011;33947;46.804;134.252;2024-02-23T15:56:52;78.85;;;25.60;;
46845;SDS011;33947;46.804;134.252;2024-02-23T15:59:58;46.25;;;19.95;;
46845;SDS011;33947;46.804;134.252;2024-02-23T16:03:08;29.23;;;11.63;;
46845;SDS011;33947;46.804;134.252;2024-02-23T16:06:15;34.25;;;15.27;;
46845;SDS011;33947;46.804;134.252;2024-02-23T16:09:23;41.65;;;16.48;;
46845;SDS011;33947;46.804;134.252;2024-02-23T16:12:32;48.90;;;14.50;;
46845;SDS011;33947;46.804;134.252;2024-02-23T16:15:41;25.10;;;9.77;;
46845;SDS011;33947;46.804;134.252;2024-02-23T16:18:47;24.35;;;9.07;;
46845;SDS011;33947;46.804;134.252;2024-02-23T16:21:55;18.02;;;6.90;;
46845;SDS011;33947;46.804;134.252;2024-02-23T16:25:02;20.75;;;6.10;;
46845;SDS011;33947;46.804;134.252;2024-02-23T16:28:11;10.00;;;4.72;;
46845;SDS011;33947;46.804;134.252;2024-02-23T16:31:19;16.80;;;6.80;;
46845;SDS011;33947;46.804;134.252;2024-02-23T16:34:26;17.00;;;4.45;;
46845;SDS011;33947;46.804;134.252;2024-02-23T16:37:33;49.38;;;16.38;;
46845;SDS011;33947;46.804;134.252;2024-02-23T16:40:41;130.43;;;36.45;;
46845;SDS011;33947;46.804;134.252;2024-02-23T16:43:49;44.33;;;14.25;;
46845;SDS011;33947;46.804;134.252;2024-02-23T16:46:58;20.38;;;7.05;;
46845;SDS011;33947;46.804;134.252;2024-02-23T16:50:07;25.27;;;6.05;;
46845;SDS011;33947;46.804;134.252;2024-02-23T16:53:15;102.95;;;28.05;;
46845;SDS011;33947;46.804;134.252;2024-02-23T16:56:22;61.33;;;22.00;;
46845;SDS011;33947;46.804;134.252;2024-02-23T16:59:33;17.10;;;8.90;;
46845;SDS011;33947;46.804;134.252;2024-02-23T17:02:40;15.05;;;6.95;;
46845;SDS011;33947;46.804;134.252;2024-02-23T17:05:48;11.85;;;5.22;;
46845;SDS011;33947;46.804;134.252;2024-02-23T17:08:56;20.95;;;7.72;;
46845;SDS011;33947;46.804;134.252;2024-02-23T17:12:03;40.08;;;8.77;;
46845;SDS011;33947;46.804;134.252;2024-02-23T17:15:12;39.75;;;14.02;;
46845;SDS011;33947;46.804;134.252;2024-02-23T17:18:20;14.02;;;6.60;;
46845;SDS011;33947;46.804;134.252;2024-02-23T17:21:28;29.42;;;11.00;;
46845;SDS011;33947;46.804;134.252;2024-02-23T17:24:35;33.90;;;11.93;;
46845;SDS011;33947;46.804;134.252;2024-02-23T17:27:42;21.85;;;9.73;;
46845;SDS011;33947;46.804;134.252;2024-02-23T17:30:52;14.60;;;8.73;;
46845;SDS011;33947;46.804;134.252;2024-02-23T17:33:59;22.55;;;5.97;;
46845;SDS011;33947;46.804;134.252;2024-02-23T17:37:06;17.27;;;6.15;;
46845;SDS011;33947;46.804;134.252;2024-02-23T17:40:13;14.70;;;5.88;;
46845;SDS011;33947;46.804;134.252;2024-02-23T17:43:21;15.40;;;7.07;;
46845;SDS011;33947;46.804;134.252;2024-02-23T17:46:29;33.78;;;11.88;;
46845;SDS011;33947;46.804;134.252;2024-02-23T17:49:37;117.97;;;27.33;;
46845;SDS011;33947;46.804;134.252;2024-02-23T17:52:43;238.68;;;68.65;;
46845;SDS011;33947;46.804;134.252;2024-02-23T17:55:52;220.40;;;52.78;;
46845;SDS011;33947;46.804;134.252;2024-02-23T17:59:01;166.60;;;43.63;;
46845;SDS011;33947;46.804;134.252;2024-02-23T18:02:10;178.10;;;58.92;;